Flight Track Log - Related Links

Times and Time Zones

All times are in EDT time to prevent confusion due to time zone crossing. See the DAL2579 flight status page for this flight to view local times or setup timezone preferences in your user account.

Time Position Orientation Groundspeed Altitude Reporting Facility
EDT Latitude Longitude Course Direction KTS MPH feet Rate Location/Type
Mon 09:12:23 AM 40.7622 -111.9831 246° West 176 203 5,500  Level Salt Lake Center
Mon 09:13:16 AM 40.7503 -112.0508 257° West 233 268 7,100 2,164 Climbing Salt Lake Center
Mon 09:13:24 AM 40.7508 -112.0689 272° West 272 313 7,700 3,836 Climbing Salt Lake Center
Mon 09:14:17 AM 40.7792 -112.1453 296° West 277 319 11,000 2,549 Climbing Salt Lake Center
Mon 09:15:00 AM 40.8638 -112.4534 259° West  Level FlightAware Approximate
Mon 09:15:17 AM 40.8083 -112.2600 289° West 352 405 12,500  Level Salt Lake Center
Mon 09:16:00 AM 40.8500 -112.5899 270° West  Level FlightAware Approximate
Mon 09:16:18 AM 40.8175 -112.3986 275° West 379 436 15,900  Level Salt Lake Center
Mon 09:17:00 AM 40.8465 -112.7271 246° West  Level FlightAware Approximate
Mon 09:17:19 AM 40.8258 -112.5400 274° West 386 444 18,900  Level Salt Lake Center
Mon 09:18:20 AM 40.8347 -112.6858 275° West 399 459 21,600 2,459 Climbing Salt Lake Center
Mon 09:19:21 AM 40.8419 -112.8347 274° West 407 468 23,900 2,262 Climbing Salt Lake Center
Mon 09:20:22 AM 40.8425 -112.9881 270° West 419 482 26,200 2,311 Climbing Salt Lake Center
Mon 09:21:23 AM 40.8428 -113.1400 270° West 417 480 28,600 2,164 Climbing Salt Lake Center
Mon 09:22:24 AM 40.8436 -113.2894 270° West 410 472 30,600 1,672 Climbing Salt Lake Center
Mon 09:23:25 AM 40.8333 -113.4367 265° West 407 468 32,000 1,770 Climbing Salt Lake Center
Mon 09:24:26 AM 40.8161 -113.5781 261° West 396 456 34,200 1,820 Climbing Salt Lake Center
Mon 09:25:27 AM 40.7978 -113.7150 260° West 384 442 35,700 1,377 Climbing Salt Lake Center
Mon 09:26:28 AM 40.7819 -113.8547 262° West 384 442 37,000 1,131 Climbing Salt Lake Center
Mon 09:27:29 AM 40.7650 -113.9928 261° West 384 442 38,000 492 Climbing Salt Lake Center
Mon 09:28:30 AM 40.7453 -114.1614 261° West 386 444 38,000  Level Salt Lake Center
Mon 09:29:31 AM 40.7281 -114.3039 261° West 389 448 38,000  Level Salt Lake Center
Mon 09:30:32 AM 40.7144 -114.4456 263° West 390 449 38,000  Level Salt Lake Center
Mon 09:31:33 AM 40.6975 -114.5847 261° West 390 449 38,000  Level Salt Lake Center
Mon 09:32:34 AM 40.6794 -114.7242 260° West 389 448 38,000  Level Salt Lake Center
Mon 09:33:35 AM 40.6614 -114.8614 260° West 388 447 38,000  Level Salt Lake Center
Mon 09:34:36 AM 40.6422 -115.0158 261° West 387 445 38,000  Level Salt Lake Center
Mon 09:35:37 AM 40.6244 -115.1475 260° West 385 443 38,000  Level Salt Lake Center
Mon 09:36:38 AM 40.6031 -115.2775 258° West 383 441 38,000  Level Salt Lake Center
Mon 09:37:40 AM 40.5844 -115.4336 261° West 382 440 38,000  Level Salt Lake Center
Mon 09:38:41 AM 40.5683 -115.5664 261° West 383 441 38,000  Level Salt Lake Center
Mon 09:39:42 AM 40.5489 -115.7003 259° West 385 443 38,000  Level Salt Lake Center
Mon 09:40:43 AM 40.5281 -115.8561 260° West 385 443 38,000  Level Salt Lake Center
Mon 09:41:44 AM 40.5103 -115.9889 260° West 386 444 38,000  Level Salt Lake Center
Mon 09:42:45 AM 40.4919 -116.1211 260° West 386 444 38,000  Level Salt Lake Center
Mon 09:43:47 AM 40.4706 -116.2761 260° West 385 443 38,000  Level Salt Lake Center
Mon 09:44:48 AM 40.4519 -116.4072 259° West 385 443 38,000  Level Salt Lake Center
Mon 09:45:49 AM 40.4308 -116.5625 260° West 385 443 38,000  Level Salt Lake Center
Mon 09:46:50 AM 40.4117 -116.6950 259° West 385 443 38,000  Level Salt Lake Center
Mon 09:47:51 AM 40.3908 -116.8325 259° West 385 443 38,000  Level Salt Lake Center
Mon 09:48:53 AM 40.3703 -116.9672 259° West 383 441 38,000  Level Salt Lake Center
Mon 09:49:54 AM 40.3494 -117.1211 260° West 384 442 38,000  Level Salt Lake Center
Mon 09:50:55 AM 40.3297 -117.2542 259° West 384 442 38,000  Level Salt Lake Center
Mon 09:51:56 AM 40.3100 -117.3864 259° West 385 443 38,000  Level Salt Lake Center
Mon 09:52:58 AM 40.2867 -117.5400 259° West 385 443 38,000  Level Salt Lake Center
Mon 09:53:59 AM 40.2664 -117.6708 259° West 385 443 38,000  Level Salt Lake Center
Mon 09:55:00 AM 40.2464 -117.8036 259° West 385 443 38,000  Level Salt Lake Center
Mon 09:56:03 AM 40.2239 -117.9575 259° West 385 443 38,000  Level Oakland Center
Mon 09:57:04 AM 40.2017 -118.0942 258° West 386 444 38,000 -397 Level Oakland Center
Mon 09:58:04 AM 40.1803 -118.2294 258° West 385 443 37,200 -843 Descending Oakland Center
Mon 09:59:05 AM 40.1592 -118.3625 258° West 381 438 36,300 -1,377 Descending Oakland Center
Mon 10:00:06 AM 40.1381 -118.4950 258° West 379 436 34,400 -2,607 Descending Oakland Center
Mon 10:01:07 AM 40.1161 -118.6250 258° West 372 428 31,000 -3,393 Descending Oakland Center
Mon 10:02:08 AM 40.0908 -118.7592 256° West 380 437 27,500 -3,393 Descending Oakland Center
Mon 10:03:09 AM 40.0589 -118.9208 256° West 387 445 24,100 -3,074 Descending Oakland Center
Mon 10:04:09 AM 40.0331 -119.0542 256° West 384 442 21,300 -2,777 Descending Oakland Center
Mon 10:05:10 AM 40.0061 -119.1836 255° West 377 434 18,500 -2,607 Descending Oakland Center
Mon 10:06:11 AM 39.9808 -119.3125 256° West 371 427 16,000 -1,869 Descending Oakland Center
Mon 10:07:12 AM 39.9569 -119.4347 256° West 356 410 14,700 -1,230 Descending Oakland Center
Mon 10:08:13 AM 39.9281 -119.5286 248° West 291 335 13,500 -1,377 Descending Oakland Center
Mon 10:09:14 AM 39.9006 -119.6169 248° West 270 311 11,900 -2,115 Descending Oakland Center
Mon 10:10:15 AM 39.8686 -119.6958 242° Southwest 239 275 9,200 -1,537 Descending Oakland Center
Mon 10:11:15 AM 39.8058 -119.7211 197° South 240 276 8,800 -496 Descending Oakland Center
Mon 10:12:16 AM 39.7439 -119.7444 196° South 235 270 8,200 -491 Descending Oakland Center
Mon 10:13:54 AM 39.6625 -119.7694 193° South 147 169 7,500 -716 Descending Oakland Center
Mon 10:15:12 AM 39.6000 -119.7667 178° South 176 203 6,100 -957 Descending Northern Cal TRACON
Mon 10:16:12 AM 39.5500 -119.7667 180° South 147 169 5,300 -800 Descending Northern Cal TRACON
Mon 10:17:12 AM 39.5167 -119.7667 180° South 148 170 4,500 -800 Descending Northern Cal TRACON

Login

Don't have an account? Register now (free) for customized features, flight alerts, and more!